sensor_id;sensor_type;location;lat;lon;timestamp;P1;durP1;ratioP1;P2;durP2;ratioP2
62610;SDS011;48683;48.084;17.272;2023-07-13T00:01:12;5.97;;;3.25;;
62610;SDS011;48683;48.084;17.272;2023-07-13T00:03:38;7.03;;;2.90;;
62610;SDS011;48683;48.084;17.272;2023-07-13T00:06:06;7.20;;;3.17;;
62610;SDS011;48683;48.084;17.272;2023-07-13T00:08:32;6.15;;;2.88;;
62610;SDS011;48683;48.084;17.272;2023-07-13T00:10:58;5.22;;;3.25;;
62610;SDS011;48683;48.084;17.272;2023-07-13T00:15:50;8.73;;;3.47;;
62610;SDS011;48683;48.084;17.272;2023-07-13T00:18:15;5.57;;;3.50;;
62610;SDS011;48683;48.084;17.272;2023-07-13T00:20:41;11.13;;;4.30;;
62610;SDS011;48683;48.084;17.272;2023-07-13T00:23:06;6.60;;;3.67;;
62610;SDS011;48683;48.084;17.272;2023-07-13T00:25:32;12.25;;;4.03;;
62610;SDS011;48683;48.084;17.272;2023-07-13T00:27:57;10.20;;;3.90;;
62610;SDS011;48683;48.084;17.272;2023-07-13T00:30:23;10.80;;;3.60;;
62610;SDS011;48683;48.084;17.272;2023-07-13T00:32:48;6.60;;;3.27;;
62610;SDS011;48683;48.084;17.272;2023-07-13T00:35:14;5.30;;;3.33;;
62610;SDS011;48683;48.084;17.272;2023-07-13T00:37:40;8.95;;;2.90;;
62610;SDS011;48683;48.084;17.272;2023-07-13T00:40:06;9.87;;;3.90;;
62610;SDS011;48683;48.084;17.272;2023-07-13T00:42:33;6.20;;;3.88;;
62610;SDS011;48683;48.084;17.272;2023-07-13T00:45:03;7.27;;;2.93;;
62610;SDS011;48683;48.084;17.272;2023-07-13T00:47:40;9.15;;;4.05;;
62610;SDS011;48683;48.084;17.272;2023-07-13T00:50:07;9.55;;;3.33;;
62610;SDS011;48683;48.084;17.272;2023-07-13T00:52:35;5.50;;;3.47;;
62610;SDS011;48683;48.084;17.272;2023-07-13T00:55:02;6.32;;;3.53;;
62610;SDS011;48683;48.084;17.272;2023-07-13T00:57:28;7.17;;;3.20;;
62610;SDS011;48683;48.084;17.272;2023-07-13T00:59:54;5.47;;;3.30;;
62610;SDS011;48683;48.084;17.272;2023-07-13T01:02:24;5.55;;;3.03;;
62610;SDS011;48683;48.084;17.272;2023-07-13T01:04:50;6.25;;;3.50;;
62610;SDS011;48683;48.084;17.272;2023-07-13T01:07:15;6.73;;;3.57;;
62610;SDS011;48683;48.084;17.272;2023-07-13T01:09:41;8.07;;;3.70;;
62610;SDS011;48683;48.084;17.272;2023-07-13T01:12:07;9.47;;;3.33;;
62610;SDS011;48683;48.084;17.272;2023-07-13T01:14:32;5.55;;;3.10;;
62610;SDS011;48683;48.084;17.272;2023-07-13T01:16:58;6.03;;;3.40;;
62610;SDS011;48683;48.084;17.272;2023-07-13T01:22:11;5.60;;;3.20;;
62610;SDS011;48683;48.084;17.272;2023-07-13T01:24:40;5.55;;;3.05;;
62610;SDS011;48683;48.084;17.272;2023-07-13T01:27:08;7.72;;;3.38;;
62610;SDS011;48683;48.084;17.272;2023-07-13T01:29:35;7.10;;;2.67;;
62610;SDS011;48683;48.084;17.272;2023-07-13T01:32:09;4.03;;;2.88;;
62610;SDS011;48683;48.084;17.272;2023-07-13T01:34:36;5.32;;;3.30;;
62610;SDS011;48683;48.084;17.272;2023-07-13T01:37:02;2.70;;;2.03;;
62610;SDS011;48683;48.084;17.272;2023-07-13T01:39:29;8.82;;;2.83;;
62610;SDS011;48683;48.084;17.272;2023-07-13T01:41:54;4.43;;;2.50;;
62610;SDS011;48683;48.084;17.272;2023-07-13T01:44:19;5.43;;;2.07;;
62610;SDS011;48683;48.084;17.272;2023-07-13T01:46:45;5.17;;;2.67;;
62610;SDS011;48683;48.084;17.272;2023-07-13T01:49:11;3.13;;;1.90;;
62610;SDS011;48683;48.084;17.272;2023-07-13T01:51:36;4.17;;;2.10;;
62610;SDS011;48683;48.084;17.272;2023-07-13T01:54:01;3.10;;;2.23;;
62610;SDS011;48683;48.084;17.272;2023-07-13T01:56:26;4.43;;;2.20;;
62610;SDS011;48683;48.084;17.272;2023-07-13T01:58:52;6.80;;;2.70;;
62610;SDS011;48683;48.084;17.272;2023-07-13T02:01:17;5.37;;;2.73;;
62610;SDS011;48683;48.084;17.272;2023-07-13T02:03:42;5.17;;;2.70;;
62610;SDS011;48683;48.084;17.272;2023-07-13T02:06:08;3.80;;;2.77;;
62610;SDS011;48683;48.084;17.272;2023-07-13T02:08:33;5.70;;;2.77;;
62610;SDS011;48683;48.084;17.272;2023-07-13T02:10:59;6.43;;;2.20;;
62610;SDS011;48683;48.084;17.272;2023-07-13T02:13:25;7.03;;;2.37;;
62610;SDS011;48683;48.084;17.272;2023-07-13T02:15:50;7.40;;;3.17;;
62610;SDS011;48683;48.084;17.272;2023-07-13T02:18:16;7.57;;;3.30;;
62610;SDS011;48683;48.084;17.272;2023-07-13T02:20:42;6.70;;;2.63;;
62610;SDS011;48683;48.084;17.272;2023-07-13T02:23:08;6.32;;;2.97;;
62610;SDS011;48683;48.084;17.272;2023-07-13T02:25:33;6.07;;;3.10;;
62610;SDS011;48683;48.084;17.272;2023-07-13T02:27:58;10.37;;;2.97;;
62610;SDS011;48683;48.084;17.272;2023-07-13T02:30:23;9.07;;;3.07;;
62610;SDS011;48683;48.084;17.272;2023-07-13T02:32:50;4.57;;;2.30;;
62610;SDS011;48683;48.084;17.272;2023-07-13T02:35:15;3.37;;;2.20;;
62610;SDS011;48683;48.084;17.272;2023-07-13T02:37:41;6.17;;;2.77;;
62610;SDS011;48683;48.084;17.272;2023-07-13T02:40:06;7.63;;;2.70;;
62610;SDS011;48683;48.084;17.272;2023-07-13T02:42:34;3.97;;;2.38;;
62610;SDS011;48683;48.084;17.272;2023-07-13T02:44:59;5.15;;;2.90;;
62610;SDS011;48683;48.084;17.272;2023-07-13T02:47:25;6.40;;;2.80;;
62610;SDS011;48683;48.084;17.272;2023-07-13T02:49:51;6.45;;;3.15;;
62610;SDS011;48683;48.084;17.272;2023-07-13T02:52:17;4.90;;;3.30;;
62610;SDS011;48683;48.084;17.272;2023-07-13T02:54:42;4.67;;;3.73;;
62610;SDS011;48683;48.084;17.272;2023-07-13T02:57:08;6.10;;;3.43;;
62610;SDS011;48683;48.084;17.272;2023-07-13T02:59:33;4.07;;;3.67;;
62610;SDS011;48683;48.084;17.272;2023-07-13T03:01:58;7.93;;;3.97;;
62610;SDS011;48683;48.084;17.272;2023-07-13T03:04:26;7.68;;;3.50;;
62610;SDS011;48683;48.084;17.272;2023-07-13T03:06:51;7.90;;;3.30;;
62610;SDS011;48683;48.084;17.272;2023-07-13T03:09:16;6.83;;;2.77;;
62610;SDS011;48683;48.084;17.272;2023-07-13T03:11:42;4.83;;;2.80;;
62610;SDS011;48683;48.084;17.272;2023-07-13T03:14:07;3.80;;;2.30;;
62610;SDS011;48683;48.084;17.272;2023-07-13T03:16:33;4.45;;;2.38;;
62610;SDS011;48683;48.084;17.272;2023-07-13T03:18:58;4.40;;;2.20;;
62610;SDS011;48683;48.084;17.272;2023-07-13T03:21:24;6.57;;;2.20;;
62610;SDS011;48683;48.084;17.272;2023-07-13T03:23:49;3.37;;;2.20;;
62610;SDS011;48683;48.084;17.272;2023-07-13T03:26:16;5.80;;;2.07;;
62610;SDS011;48683;48.084;17.272;2023-07-13T03:28:43;3.90;;;2.15;;
62610;SDS011;48683;48.084;17.272;2023-07-13T03:31:10;6.53;;;2.23;;
62610;SDS011;48683;48.084;17.272;2023-07-13T03:33:38;5.35;;;2.40;;
62610;SDS011;48683;48.084;17.272;2023-07-13T03:36:04;5.43;;;2.27;;
62610;SDS011;48683;48.084;17.272;2023-07-13T03:38:31;5.90;;;2.33;;
62610;SDS011;48683;48.084;17.272;2023-07-13T03:40:57;5.38;;;2.05;;
62610;SDS011;48683;48.084;17.272;2023-07-13T03:43:22;6.70;;;2.17;;
62610;SDS011;48683;48.084;17.272;2023-07-13T03:45:47;3.53;;;2.10;;
62610;SDS011;48683;48.084;17.272;2023-07-13T03:48:13;4.57;;;2.57;;
62610;SDS011;48683;48.084;17.272;2023-07-13T03:50:39;5.32;;;2.67;;
62610;SDS011;48683;48.084;17.272;2023-07-13T03:53:04;4.27;;;2.50;;
62610;SDS011;48683;48.084;17.272;2023-07-13T03:55:30;6.30;;;2.20;;
62610;SDS011;48683;48.084;17.272;2023-07-13T03:57:59;7.90;;;2.43;;
62610;SDS011;48683;48.084;17.272;2023-07-13T04:00:26;4.25;;;2.45;;
62610;SDS011;48683;48.084;17.272;2023-07-13T04:02:51;5.77;;;2.37;;
62610;SDS011;48683;48.084;17.272;2023-07-13T04:05:16;5.10;;;2.07;;
62610;SDS011;48683;48.084;17.272;2023-07-13T04:07:42;4.80;;;2.43;;
62610;SDS011;48683;48.084;17.272;2023-07-13T04:10:08;2.33;;;1.90;;
62610;SDS011;48683;48.084;17.272;2023-07-13T04:12:33;4.30;;;2.13;;
62610;SDS011;48683;48.084;17.272;2023-07-13T04:14:59;4.73;;;2.03;;
62610;SDS011;48683;48.084;17.272;2023-07-13T04:17:24;4.33;;;2.30;;
62610;SDS011;48683;48.084;17.272;2023-07-13T04:19:50;4.60;;;2.43;;
62610;SDS011;48683;48.084;17.272;2023-07-13T04:22:15;5.43;;;2.43;;
62610;SDS011;48683;48.084;17.272;2023-07-13T04:24:40;5.27;;;2.37;;
62610;SDS011;48683;48.084;17.272;2023-07-13T04:27:06;5.10;;;2.10;;
62610;SDS011;48683;48.084;17.272;2023-07-13T04:29:32;8.40;;;2.45;;
62610;SDS011;48683;48.084;17.272;2023-07-13T04:31:57;3.80;;;1.87;;
62610;SDS011;48683;48.084;17.272;2023-07-13T04:34:23;4.63;;;2.33;;
62610;SDS011;48683;48.084;17.272;2023-07-13T04:36:49;4.93;;;2.13;;
62610;SDS011;48683;48.084;17.272;2023-07-13T04:39:14;2.90;;;2.37;;
62610;SDS011;48683;48.084;17.272;2023-07-13T04:41:40;5.73;;;3.30;;
62610;SDS011;48683;48.084;17.272;2023-07-13T04:44:05;3.50;;;2.00;;
62610;SDS011;48683;48.084;17.272;2023-07-13T04:46:30;5.77;;;2.93;;
62610;SDS011;48683;48.084;17.272;2023-07-13T04:48:56;7.33;;;2.50;;
62610;SDS011;48683;48.084;17.272;2023-07-13T04:51:22;4.85;;;2.90;;
62610;SDS011;48683;48.084;17.272;2023-07-13T04:53:48;9.37;;;2.70;;
62610;SDS011;48683;48.084;17.272;2023-07-13T04:56:13;6.50;;;2.90;;
62610;SDS011;48683;48.084;17.272;2023-07-13T04:58:39;8.53;;;2.80;;
62610;SDS011;48683;48.084;17.272;2023-07-13T05:01:05;10.00;;;3.08;;
62610;SDS011;48683;48.084;17.272;2023-07-13T05:03:31;4.93;;;2.57;;
62610;SDS011;48683;48.084;17.272;2023-07-13T05:05:58;7.05;;;3.08;;
62610;SDS011;48683;48.084;17.272;2023-07-13T05:08:25;5.88;;;2.97;;
62610;SDS011;48683;48.084;17.272;2023-07-13T05:10:50;8.20;;;3.60;;
62610;SDS011;48683;48.084;17.272;2023-07-13T05:13:17;8.52;;;3.13;;
62610;SDS011;48683;48.084;17.272;2023-07-13T05:15:42;9.03;;;3.73;;
62610;SDS011;48683;48.084;17.272;2023-07-13T05:18:08;6.63;;;3.03;;
62610;SDS011;48683;48.084;17.272;2023-07-13T05:20:33;10.03;;;3.77;;
62610;SDS011;48683;48.084;17.272;2023-07-13T05:22:58;10.23;;;3.27;;
62610;SDS011;48683;48.084;17.272;2023-07-13T05:25:24;8.27;;;3.20;;
62610;SDS011;48683;48.084;17.272;2023-07-13T05:27:49;9.17;;;3.10;;
62610;SDS011;48683;48.084;17.272;2023-07-13T05:30:14;7.10;;;2.83;;
62610;SDS011;48683;48.084;17.272;2023-07-13T05:32:40;4.13;;;2.87;;
62610;SDS011;48683;48.084;17.272;2023-07-13T05:35:06;6.13;;;3.50;;
62610;SDS011;48683;48.084;17.272;2023-07-13T05:37:32;4.70;;;2.67;;
62610;SDS011;48683;48.084;17.272;2023-07-13T05:39:57;6.73;;;3.47;;
62610;SDS011;48683;48.084;17.272;2023-07-13T05:42:22;6.30;;;3.07;;
62610;SDS011;48683;48.084;17.272;2023-07-13T05:44:48;4.53;;;3.07;;
62610;SDS011;48683;48.084;17.272;2023-07-13T05:47:13;6.27;;;3.27;;
62610;SDS011;48683;48.084;17.272;2023-07-13T05:49:40;6.60;;;3.00;;
62610;SDS011;48683;48.084;17.272;2023-07-13T05:52:05;4.30;;;3.00;;
62610;SDS011;48683;48.084;17.272;2023-07-13T05:54:31;5.80;;;2.90;;
62610;SDS011;48683;48.084;17.272;2023-07-13T05:56:56;5.83;;;2.80;;
62610;SDS011;48683;48.084;17.272;2023-07-13T05:59:21;5.63;;;3.27;;
62610;SDS011;48683;48.084;17.272;2023-07-13T06:01:47;3.60;;;2.03;;
62610;SDS011;48683;48.084;17.272;2023-07-13T06:04:12;4.60;;;2.67;;
62610;SDS011;48683;48.084;17.272;2023-07-13T06:06:38;5.67;;;2.47;;
62610;SDS011;48683;48.084;17.272;2023-07-13T06:09:03;3.27;;;2.63;;
62610;SDS011;48683;48.084;17.272;2023-07-13T06:11:28;10.57;;;3.90;;
62610;SDS011;48683;48.084;17.272;2023-07-13T06:13:55;5.43;;;3.00;;
62610;SDS011;48683;48.084;17.272;2023-07-13T06:16:21;3.17;;;2.30;;
62610;SDS011;48683;48.084;17.272;2023-07-13T06:18:46;5.20;;;2.60;;
62610;SDS011;48683;48.084;17.272;2023-07-13T06:21:13;4.77;;;2.47;;
62610;SDS011;48683;48.084;17.272;2023-07-13T06:23:40;3.42;;;2.55;;
62610;SDS011;48683;48.084;17.272;2023-07-13T06:26:05;5.30;;;2.40;;
62610;SDS011;48683;48.084;17.272;2023-07-13T06:28:31;4.65;;;2.40;;
62610;SDS011;48683;48.084;17.272;2023-07-13T06:30:58;2.88;;;2.30;;
62610;SDS011;48683;48.084;17.272;2023-07-13T06:35:50;5.15;;;2.20;;
62610;SDS011;48683;48.084;17.272;2023-07-13T06:38:15;3.97;;;2.07;;
62610;SDS011;48683;48.084;17.272;2023-07-13T06:40:41;3.43;;;2.03;;
62610;SDS011;48683;48.084;17.272;2023-07-13T06:43:06;2.57;;;2.03;;
62610;SDS011;48683;48.084;17.272;2023-07-13T06:45:34;6.77;;;2.23;;
62610;SDS011;48683;48.084;17.272;2023-07-13T06:48:01;3.55;;;2.10;;
62610;SDS011;48683;48.084;17.272;2023-07-13T06:50:26;6.77;;;2.20;;
62610;SDS011;48683;48.084;17.272;2023-07-13T06:52:52;3.43;;;2.23;;
62610;SDS011;48683;48.084;17.272;2023-07-13T06:55:17;3.40;;;2.23;;
62610;SDS011;48683;48.084;17.272;2023-07-13T06:57:43;3.83;;;2.20;;
62610;SDS011;48683;48.084;17.272;2023-07-13T07:00:08;5.17;;;2.33;;
62610;SDS011;48683;48.084;17.272;2023-07-13T07:02:35;2.13;;;1.95;;
62610;SDS011;48683;48.084;17.272;2023-07-13T07:05:00;3.47;;;2.20;;
62610;SDS011;48683;48.084;17.272;2023-07-13T07:07:26;2.80;;;2.10;;
62610;SDS011;48683;48.084;17.272;2023-07-13T07:09:51;3.07;;;1.83;;
62610;SDS011;48683;48.084;17.272;2023-07-13T07:12:16;3.87;;;2.13;;
62610;SDS011;48683;48.084;17.272;2023-07-13T07:14:42;4.43;;;2.30;;
62610;SDS011;48683;48.084;17.272;2023-07-13T07:17:07;5.13;;;2.47;;
62610;SDS011;48683;48.084;17.272;2023-07-13T07:19:32;3.90;;;2.43;;
62610;SDS011;48683;48.084;17.272;2023-07-13T07:21:59;3.95;;;2.22;;
62610;SDS011;48683;48.084;17.272;2023-07-13T07:24:24;4.67;;;2.37;;
62610;SDS011;48683;48.084;17.272;2023-07-13T07:26:50;2.63;;;1.93;;
62610;SDS011;48683;48.084;17.272;2023-07-13T07:29:15;4.83;;;2.20;;
62610;SDS011;48683;48.084;17.272;2023-07-13T07:31:40;4.10;;;2.30;;
62610;SDS011;48683;48.084;17.272;2023-07-13T07:34:06;4.60;;;2.30;;
62610;SDS011;48683;48.084;17.272;2023-07-13T07:36:31;3.47;;;2.20;;
62610;SDS011;48683;48.084;17.272;2023-07-13T07:38:57;4.23;;;2.27;;
62610;SDS011;48683;48.084;17.272;2023-07-13T07:41:22;4.33;;;2.40;;
62610;SDS011;48683;48.084;17.272;2023-07-13T07:43:48;5.13;;;2.07;;
62610;SDS011;48683;48.084;17.272;2023-07-13T07:46:13;3.03;;;1.90;;
62610;SDS011;48683;48.084;17.272;2023-07-13T07:48:38;3.17;;;2.30;;
62610;SDS011;48683;48.084;17.272;2023-07-13T07:51:04;2.87;;;2.20;;
62610;SDS011;48683;48.084;17.272;2023-07-13T07:53:29;4.50;;;2.23;;
62610;SDS011;48683;48.084;17.272;2023-07-13T07:55:55;3.67;;;2.23;;
62610;SDS011;48683;48.084;17.272;2023-07-13T07:58:20;4.87;;;2.37;;
62610;SDS011;48683;48.084;17.272;2023-07-13T08:00:46;4.30;;;2.43;;
62610;SDS011;48683;48.084;17.272;2023-07-13T08:03:12;5.20;;;2.50;;
62610;SDS011;48683;48.084;17.272;2023-07-13T08:05:37;4.40;;;2.53;;
62610;SDS011;48683;48.084;17.272;2023-07-13T08:08:02;3.07;;;2.40;;
62610;SDS011;48683;48.084;17.272;2023-07-13T08:10:28;2.95;;;2.20;;
62610;SDS011;48683;48.084;17.272;2023-07-13T08:12:54;5.20;;;2.97;;
62610;SDS011;48683;48.084;17.272;2023-07-13T08:15:19;4.57;;;3.07;;
62610;SDS011;48683;48.084;17.272;2023-07-13T08:17:46;4.03;;;2.35;;
62610;SDS011;48683;48.084;17.272;2023-07-13T08:20:12;5.05;;;3.20;;
62610;SDS011;48683;48.084;17.272;2023-07-13T08:22:38;5.87;;;2.60;;
62610;SDS011;48683;48.084;17.272;2023-07-13T08:25:03;3.97;;;2.67;;
62610;SDS011;48683;48.084;17.272;2023-07-13T08:27:31;4.97;;;3.47;;
62610;SDS011;48683;48.084;17.272;2023-07-13T08:29:56;5.47;;;2.75;;
62610;SDS011;48683;48.084;17.272;2023-07-13T08:32:22;8.60;;;2.73;;
62610;SDS011;48683;48.084;17.272;2023-07-13T08:34:48;5.40;;;3.50;;
62610;SDS011;48683;48.084;17.272;2023-07-13T08:37:14;4.88;;;3.70;;
62610;SDS011;48683;48.084;17.272;2023-07-13T08:39:40;4.25;;;3.38;;
62610;SDS011;48683;48.084;17.272;2023-07-13T08:47:30;3.53;;;2.40;;
62610;SDS011;48683;48.084;17.272;2023-07-13T08:50:00;3.28;;;2.35;;
62610;SDS011;48683;48.084;17.272;2023-07-13T08:54:57;4.32;;;2.40;;
62610;SDS011;48683;48.084;17.272;2023-07-13T08:57:31;3.17;;;2.30;;
62610;SDS011;48683;48.084;17.272;2023-07-13T08:59:58;6.78;;;2.53;;
62610;SDS011;48683;48.084;17.272;2023-07-13T09:02:28;4.17;;;2.30;;
62610;SDS011;48683;48.084;17.272;2023-07-13T09:05:12;6.82;;;2.50;;
62610;SDS011;48683;48.084;17.272;2023-07-13T09:10:18;2.90;;;2.53;;
62610;SDS011;48683;48.084;17.272;2023-07-13T09:15:59;4.40;;;2.35;;
62610;SDS011;48683;48.084;17.272;2023-07-13T09:18:30;4.82;;;2.80;;
62610;SDS011;48683;48.084;17.272;2023-07-13T09:21:05;3.03;;;2.50;;
62610;SDS011;48683;48.084;17.272;2023-07-13T09:23:35;5.60;;;2.20;;
62610;SDS011;48683;48.084;17.272;2023-07-13T09:28:46;3.90;;;2.33;;
62610;SDS011;48683;48.084;17.272;2023-07-13T09:31:15;5.55;;;2.20;;
62610;SDS011;48683;48.084;17.272;2023-07-13T09:33:44;7.35;;;2.10;;
62610;SDS011;48683;48.084;17.272;2023-07-13T09:36:28;5.88;;;2.42;;
62610;SDS011;48683;48.084;17.272;2023-07-13T09:41:38;2.45;;;1.88;;
62610;SDS011;48683;48.084;17.272;2023-07-13T09:44:14;2.17;;;1.98;;
62610;SDS011;48683;48.084;17.272;2023-07-13T09:46:46;2.88;;;1.98;;
62610;SDS011;48683;48.084;17.272;2023-07-13T09:49:23;4.65;;;2.08;;
62610;SDS011;48683;48.084;17.272;2023-07-13T09:51:50;3.58;;;1.95;;
62610;SDS011;48683;48.084;17.272;2023-07-13T09:54:25;2.17;;;1.60;;
62610;SDS011;48683;48.084;17.272;2023-07-13T09:56:53;2.27;;;1.50;;
62610;SDS011;48683;48.084;17.272;2023-07-13T09:59:23;3.13;;;1.80;;
62610;SDS011;48683;48.084;17.272;2023-07-13T10:01:53;1.70;;;1.55;;
62610;SDS011;48683;48.084;17.272;2023-07-13T10:04:19;3.50;;;1.70;;
62610;SDS011;48683;48.084;17.272;2023-07-13T10:06:47;3.15;;;1.73;;
62610;SDS011;48683;48.084;17.272;2023-07-13T10:09:16;1.70;;;1.60;;
62610;SDS011;48683;48.084;17.272;2023-07-13T10:11:43;3.13;;;2.22;;
62610;SDS011;48683;48.084;17.272;2023-07-13T10:16:38;2.58;;;2.00;;
62610;SDS011;48683;48.084;17.272;2023-07-13T10:19:23;1.90;;;1.73;;
62610;SDS011;48683;48.084;17.272;2023-07-13T10:22:12;3.55;;;1.83;;
62610;SDS011;48683;48.084;17.272;2023-07-13T10:24:44;3.10;;;2.00;;
62610;SDS011;48683;48.084;17.272;2023-07-13T10:27:12;3.03;;;1.87;;
62610;SDS011;48683;48.084;17.272;2023-07-13T10:29:43;5.40;;;2.00;;
62610;SDS011;48683;48.084;17.272;2023-07-13T10:32:13;1.92;;;1.73;;
62610;SDS011;48683;48.084;17.272;2023-07-13T10:34:39;3.00;;;1.77;;
62610;SDS011;48683;48.084;17.272;2023-07-13T10:37:07;2.58;;;1.80;;
62610;SDS011;48683;48.084;17.272;2023-07-13T10:39:43;2.42;;;1.90;;
62610;SDS011;48683;48.084;17.272;2023-07-13T10:42:10;4.00;;;2.47;;
62610;SDS011;48683;48.084;17.272;2023-07-13T10:44:40;2.42;;;2.20;;
62610;SDS011;48683;48.084;17.272;2023-07-13T10:47:08;3.13;;;2.00;;
62610;SDS011;48683;48.084;17.272;2023-07-13T10:49:40;7.90;;;2.35;;
62610;SDS011;48683;48.084;17.272;2023-07-13T10:52:20;4.97;;;2.25;;
62610;SDS011;48683;48.084;17.272;2023-07-13T11:00:53;2.95;;;2.03;;
62610;SDS011;48683;48.084;17.272;2023-07-13T11:03:36;4.15;;;2.33;;
62610;SDS011;48683;48.084;17.272;2023-07-13T11:18:47;2.58;;;2.00;;
62610;SDS011;48683;48.084;17.272;2023-07-13T11:21:21;5.68;;;2.10;;
62610;SDS011;48683;48.084;17.272;2023-07-13T11:23:51;4.70;;;2.70;;
62610;SDS011;48683;48.084;17.272;2023-07-13T11:29:27;4.47;;;2.80;;
62610;SDS011;48683;48.084;17.272;2023-07-13T11:32:01;4.18;;;2.55;;
62610;SDS011;48683;48.084;17.272;2023-07-13T11:34:45;3.20;;;2.60;;
62610;SDS011;48683;48.084;17.272;2023-07-13T11:37:11;4.53;;;2.40;;
62610;SDS011;48683;48.084;17.272;2023-07-13T11:39:41;4.60;;;2.15;;
62610;SDS011;48683;48.084;17.272;2023-07-13T11:42:10;5.03;;;2.30;;
62610;SDS011;48683;48.084;17.272;2023-07-13T11:44:41;4.50;;;2.58;;
62610;SDS011;48683;48.084;17.272;2023-07-13T11:47:11;2.45;;;2.25;;
62610;SDS011;48683;48.084;17.272;2023-07-13T11:49:43;3.00;;;1.98;;
62610;SDS011;48683;48.084;17.272;2023-07-13T11:52:13;2.88;;;2.33;;
62610;SDS011;48683;48.084;17.272;2023-07-13T11:59:56;3.72;;;2.70;;
62610;SDS011;48683;48.084;17.272;2023-07-13T12:02:30;3.83;;;2.90;;
62610;SDS011;48683;48.084;17.272;2023-07-13T12:04:58;7.47;;;2.60;;
62610;SDS011;48683;48.084;17.272;2023-07-13T12:07:27;5.85;;;2.40;;
62610;SDS011;48683;48.084;17.272;2023-07-13T12:10:00;4.18;;;2.40;;
62610;SDS011;48683;48.084;17.272;2023-07-13T12:12:36;3.72;;;2.58;;
62610;SDS011;48683;48.084;17.272;2023-07-13T12:15:05;3.30;;;2.70;;
62610;SDS011;48683;48.084;17.272;2023-07-13T12:17:31;3.67;;;2.38;;
62610;SDS011;48683;48.084;17.272;2023-07-13T12:20:00;4.25;;;2.47;;
62610;SDS011;48683;48.084;17.272;2023-07-13T12:22:46;3.35;;;2.20;;
62610;SDS011;48683;48.084;17.272;2023-07-13T12:25:12;3.33;;;2.42;;
62610;SDS011;48683;48.084;17.272;2023-07-13T12:27:38;7.10;;;2.80;;
62610;SDS011;48683;48.084;17.272;2023-07-13T12:30:05;4.40;;;2.67;;
62610;SDS011;48683;48.084;17.272;2023-07-13T12:32:56;3.92;;;2.65;;
62610;SDS011;48683;48.084;17.272;2023-07-13T12:35:23;2.97;;;2.72;;
62610;SDS011;48683;48.084;17.272;2023-07-13T12:37:49;6.40;;;2.85;;
62610;SDS011;48683;48.084;17.272;2023-07-13T12:40:16;5.35;;;2.80;;
62610;SDS011;48683;48.084;17.272;2023-07-13T12:42:45;5.28;;;2.60;;
62610;SDS011;48683;48.084;17.272;2023-07-13T12:45:24;3.65;;;2.50;;
62610;SDS011;48683;48.084;17.272;2023-07-13T12:47:54;5.07;;;2.75;;
62610;SDS011;48683;48.084;17.272;2023-07-13T12:50:27;2.60;;;2.40;;
62610;SDS011;48683;48.084;17.272;2023-07-13T12:52:59;7.15;;;2.88;;
62610;SDS011;48683;48.084;17.272;2023-07-13T12:55:28;3.83;;;2.42;;
62610;SDS011;48683;48.084;17.272;2023-07-13T12:57:57;3.67;;;2.40;;
62610;SDS011;48683;48.084;17.272;2023-07-13T13:02:53;4.53;;;2.20;;
62610;SDS011;48683;48.084;17.272;2023-07-13T13:05:20;4.28;;;2.80;;
62610;SDS011;48683;48.084;17.272;2023-07-13T13:07:48;3.50;;;2.50;;
62610;SDS011;48683;48.084;17.272;2023-07-13T13:10:14;4.32;;;2.28;;
62610;SDS011;48683;48.084;17.272;2023-07-13T13:12:40;4.70;;;2.50;;
62610;SDS011;48683;48.084;17.272;2023-07-13T13:15:07;3.28;;;2.35;;
62610;SDS011;48683;48.084;17.272;2023-07-13T13:17:33;4.40;;;2.28;;
62610;SDS011;48683;48.084;17.272;2023-07-13T13:19:59;4.25;;;2.67;;
62610;SDS011;48683;48.084;17.272;2023-07-13T13:22:24;4.90;;;2.83;;
62610;SDS011;48683;48.084;17.272;2023-07-13T13:24:50;3.97;;;2.70;;
62610;SDS011;48683;48.084;17.272;2023-07-13T13:27:21;6.00;;;2.37;;
62610;SDS011;48683;48.084;17.272;2023-07-13T13:29:48;2.90;;;2.22;;
62610;SDS011;48683;48.084;17.272;2023-07-13T13:32:16;6.53;;;2.90;;
62610;SDS011;48683;48.084;17.272;2023-07-13T13:34:43;3.80;;;2.70;;
62610;SDS011;48683;48.084;17.272;2023-07-13T13:37:21;4.25;;;2.70;;
62610;SDS011;48683;48.084;17.272;2023-07-13T13:39:48;3.28;;;2.42;;
62610;SDS011;48683;48.084;17.272;2023-07-13T13:44:39;5.22;;;2.25;;
62610;SDS011;48683;48.084;17.272;2023-07-13T13:47:16;3.22;;;2.50;;
62610;SDS011;48683;48.084;17.272;2023-07-13T13:49:52;4.83;;;2.47;;
62610;SDS011;48683;48.084;17.272;2023-07-13T13:52:18;2.50;;;2.23;;
62610;SDS011;48683;48.084;17.272;2023-07-13T13:54:43;5.60;;;2.40;;
62610;SDS011;48683;48.084;17.272;2023-07-13T13:59:37;3.83;;;2.40;;
62610;SDS011;48683;48.084;17.272;2023-07-13T14:02:08;4.50;;;2.60;;
62610;SDS011;48683;48.084;17.272;2023-07-13T14:04:54;3.58;;;2.20;;
62610;SDS011;48683;48.084;17.272;2023-07-13T14:09:48;4.68;;;2.45;;
62610;SDS011;48683;48.084;17.272;2023-07-13T14:12:13;6.73;;;2.43;;
62610;SDS011;48683;48.084;17.272;2023-07-13T14:14:38;3.90;;;2.47;;
62610;SDS011;48683;48.084;17.272;2023-07-13T14:17:08;5.78;;;2.38;;
62610;SDS011;48683;48.084;17.272;2023-07-13T14:19:43;4.00;;;2.55;;
62610;SDS011;48683;48.084;17.272;2023-07-13T14:22:08;8.10;;;2.60;;
62610;SDS011;48683;48.084;17.272;2023-07-13T14:24:33;3.07;;;2.37;;
62610;SDS011;48683;48.084;17.272;2023-07-13T14:26:58;4.27;;;2.70;;
62610;SDS011;48683;48.084;17.272;2023-07-13T14:29:24;3.80;;;2.40;;
62610;SDS011;48683;48.084;17.272;2023-07-13T14:31:50;5.72;;;2.72;;
62610;SDS011;48683;48.084;17.272;2023-07-13T14:34:15;4.00;;;2.40;;
62610;SDS011;48683;48.084;17.272;2023-07-13T14:36:42;3.13;;;2.58;;
62610;SDS011;48683;48.084;17.272;2023-07-13T14:41:39;4.18;;;2.65;;
62610;SDS011;48683;48.084;17.272;2023-07-13T14:44:15;3.35;;;2.08;;
62610;SDS011;48683;48.084;17.272;2023-07-13T14:46:42;5.70;;;2.45;;
62610;SDS011;48683;48.084;17.272;2023-07-13T14:49:13;5.22;;;2.67;;
62610;SDS011;48683;48.084;17.272;2023-07-13T14:51:47;5.13;;;2.55;;
62610;SDS011;48683;48.084;17.272;2023-07-13T14:54:12;3.67;;;2.60;;
62610;SDS011;48683;48.084;17.272;2023-07-13T14:56:37;4.10;;;2.40;;
62610;SDS011;48683;48.084;17.272;2023-07-13T14:59:03;4.33;;;2.63;;
62610;SDS011;48683;48.084;17.272;2023-07-13T15:01:29;2.72;;;2.28;;
62610;SDS011;48683;48.084;17.272;2023-07-13T15:06:22;4.47;;;2.55;;
62610;SDS011;48683;48.084;17.272;2023-07-13T15:08:48;7.30;;;2.60;;
62610;SDS011;48683;48.084;17.272;2023-07-13T15:11:13;3.88;;;2.38;;
62610;SDS011;48683;48.084;17.272;2023-07-13T15:13:39;3.70;;;2.50;;
62610;SDS011;48683;48.084;17.272;2023-07-13T15:18:50;2.63;;;2.10;;
62610;SDS011;48683;48.084;17.272;2023-07-13T15:21:20;5.25;;;2.30;;
62610;SDS011;48683;48.084;17.272;2023-07-13T15:23:47;4.50;;;2.60;;
62610;SDS011;48683;48.084;17.272;2023-07-13T15:26:17;3.88;;;2.53;;
62610;SDS011;48683;48.084;17.272;2023-07-13T15:28:44;4.15;;;2.50;;
62610;SDS011;48683;48.084;17.272;2023-07-13T15:31:20;6.47;;;2.70;;
62610;SDS011;48683;48.084;17.272;2023-07-13T15:33:48;4.22;;;2.70;;
62610;SDS011;48683;48.084;17.272;2023-07-13T15:36:15;5.60;;;2.90;;
62610;SDS011;48683;48.084;17.272;2023-07-13T15:38:42;2.78;;;2.42;;
62610;SDS011;48683;48.084;17.272;2023-07-13T15:41:16;3.53;;;2.50;;
62610;SDS011;48683;48.084;17.272;2023-07-13T15:43:42;6.93;;;2.85;;
62610;SDS011;48683;48.084;17.272;2023-07-13T15:48:33;3.80;;;2.43;;
62610;SDS011;48683;48.084;17.272;2023-07-13T15:51:03;9.50;;;2.40;;